sensor_id;sensor_type;location;lat;lon;timestamp;temperature;humidity
33095;DHT22;19459;53.044;8.910;2024-01-11T00:00:35;-5.50;99.90
33095;DHT22;19459;53.044;8.910;2024-01-11T00:03:01;-5.50;99.90
33095;DHT22;19459;53.044;8.910;2024-01-11T00:05:27;-5.40;99.90
33095;DHT22;19459;53.044;8.910;2024-01-11T00:07:53;-5.40;99.90
33095;DHT22;19459;53.044;8.910;2024-01-11T00:10:19;-5.40;99.90
33095;DHT22;19459;53.044;8.910;2024-01-11T00:12:45;-5.50;99.90
33095;DHT22;19459;53.044;8.910;2024-01-11T00:15:12;-5.50;99.90
33095;DHT22;19459;53.044;8.910;2024-01-11T00:17:38;-5.50;99.90
33095;DHT22;19459;53.044;8.910;2024-01-11T00:20:05;-5.50;99.90
33095;DHT22;19459;53.044;8.910;2024-01-11T00:22:31;-5.50;99.90
33095;DHT22;19459;53.044;8.910;2024-01-11T00:24:57;-5.50;99.90
33095;DHT22;19459;53.044;8.910;2024-01-11T00:27:23;-5.50;99.90
33095;DHT22;19459;53.044;8.910;2024-01-11T00:29:49;-5.40;99.90
33095;DHT22;19459;53.044;8.910;2024-01-11T00:32:15;-5.40;99.90
33095;DHT22;19459;53.044;8.910;2024-01-11T00:34:40;-5.30;99.90
33095;DHT22;19459;53.044;8.910;2024-01-11T00:37:06;-5.30;99.90
33095;DHT22;19459;53.044;8.910;2024-01-11T00:39:32;-5.20;99.90
33095;DHT22;19459;53.044;8.910;2024-01-11T00:41:58;-5.10;99.90
33095;DHT22;19459;53.044;8.910;2024-01-11T00:44:23;-5.10;99.90
33095;DHT22;19459;53.044;8.910;2024-01-11T00:46:49;-5.00;99.90
33095;DHT22;19459;53.044;8.910;2024-01-11T00:49:15;-5.00;99.90
33095;DHT22;19459;53.044;8.910;2024-01-11T00:51:41;-5.00;99.90
33095;DHT22;19459;53.044;8.910;2024-01-11T00:54:06;-4.90;99.90
33095;DHT22;19459;53.044;8.910;2024-01-11T00:56:33;-4.90;99.90
33095;DHT22;19459;53.044;8.910;2024-01-11T00:58:58;-4.90;99.90
33095;DHT22;19459;53.044;8.910;2024-01-11T01:01:24;-4.90;99.90
33095;DHT22;19459;53.044;8.910;2024-01-11T01:03:50;-4.90;99.90
33095;DHT22;19459;53.044;8.910;2024-01-11T01:06:15;-4.90;99.90
33095;DHT22;19459;53.044;8.910;2024-01-11T01:08:41;-4.80;99.90
33095;DHT22;19459;53.044;8.910;2024-01-11T01:11:07;-4.90;99.90
33095;DHT22;19459;53.044;8.910;2024-01-11T01:13:33;-4.90;99.90
33095;DHT22;19459;53.044;8.910;2024-01-11T01:15:58;-4.90;99.90
33095;DHT22;19459;53.044;8.910;2024-01-11T01:18:24;-4.90;99.90
33095;DHT22;19459;53.044;8.910;2024-01-11T01:20:51;-4.80;99.90
33095;DHT22;19459;53.044;8.910;2024-01-11T01:23:16;-4.80;99.90
33095;DHT22;19459;53.044;8.910;2024-01-11T01:25:43;-4.80;99.90
33095;DHT22;19459;53.044;8.910;2024-01-11T01:28:09;-4.80;99.90
33095;DHT22;19459;53.044;8.910;2024-01-11T01:30:35;-4.80;99.90
33095;DHT22;19459;53.044;8.910;2024-01-11T01:33:01;-4.80;99.90
33095;DHT22;19459;53.044;8.910;2024-01-11T01:35:26;-4.70;99.90
33095;DHT22;19459;53.044;8.910;2024-01-11T01:37:52;-4.70;99.90
33095;DHT22;19459;53.044;8.910;2024-01-11T01:40:18;-4.70;99.90
33095;DHT22;19459;53.044;8.910;2024-01-11T01:42:44;-4.70;99.90
33095;DHT22;19459;53.044;8.910;2024-01-11T01:45:11;-4.70;99.90
33095;DHT22;19459;53.044;8.910;2024-01-11T01:47:39;-4.60;99.90
33095;DHT22;19459;53.044;8.910;2024-01-11T01:50:07;-4.60;99.90
33095;DHT22;19459;53.044;8.910;2024-01-11T01:52:36;-4.60;99.90
33095;DHT22;19459;53.044;8.910;2024-01-11T01:55:04;-4.60;99.90
33095;DHT22;19459;53.044;8.910;2024-01-11T01:57:32;-4.60;99.90
33095;DHT22;19459;53.044;8.910;2024-01-11T02:00:00;-4.70;99.90
33095;DHT22;19459;53.044;8.910;2024-01-11T02:02:28;-4.70;99.90
33095;DHT22;19459;53.044;8.910;2024-01-11T02:04:57;-4.70;99.90
33095;DHT22;19459;53.044;8.910;2024-01-11T02:07:22;-4.70;99.90
33095;DHT22;19459;53.044;8.910;2024-01-11T02:09:50;-4.60;99.90
33095;DHT22;19459;53.044;8.910;2024-01-11T02:12:17;-4.60;99.90
33095;DHT22;19459;53.044;8.910;2024-01-11T02:14:43;-4.60;99.90
33095;DHT22;19459;53.044;8.910;2024-01-11T02:17:12;-4.60;99.90
33095;DHT22;19459;53.044;8.910;2024-01-11T02:19:38;-4.60;99.90
33095;DHT22;19459;53.044;8.910;2024-01-11T02:22:18;-4.50;99.90
33095;DHT22;19459;53.044;8.910;2024-01-11T02:24:47;-4.50;99.90
33095;DHT22;19459;53.044;8.910;2024-01-11T02:27:13;-4.50;99.90
33095;DHT22;19459;53.044;8.910;2024-01-11T02:29:39;-4.50;99.90
33095;DHT22;19459;53.044;8.910;2024-01-11T02:32:04;-4.50;99.90
33095;DHT22;19459;53.044;8.910;2024-01-11T02:34:32;-4.50;99.90
33095;DHT22;19459;53.044;8.910;2024-01-11T02:36:58;-4.50;99.90
33095;DHT22;19459;53.044;8.910;2024-01-11T02:39:25;-4.50;99.90
33095;DHT22;19459;53.044;8.910;2024-01-11T02:41:51;-4.50;99.90
33095;DHT22;19459;53.044;8.910;2024-01-11T02:44:18;-4.40;99.90
33095;DHT22;19459;53.044;8.910;2024-01-11T02:46:44;-4.40;99.90
33095;DHT22;19459;53.044;8.910;2024-01-11T02:49:10;-4.40;99.90
33095;DHT22;19459;53.044;8.910;2024-01-11T02:51:36;-4.40;99.90
33095;DHT22;19459;53.044;8.910;2024-01-11T02:54:02;-4.40;99.90
33095;DHT22;19459;53.044;8.910;2024-01-11T02:56:28;-4.40;99.90
33095;DHT22;19459;53.044;8.910;2024-01-11T02:58:53;-4.40;99.90
33095;DHT22;19459;53.044;8.910;2024-01-11T03:01:19;-4.40;99.90
33095;DHT22;19459;53.044;8.910;2024-01-11T03:03:45;-4.40;99.90
33095;DHT22;19459;53.044;8.910;2024-01-11T03:06:11;-4.50;99.90
33095;DHT22;19459;53.044;8.910;2024-01-11T03:08:36;-4.50;99.90
33095;DHT22;19459;53.044;8.910;2024-01-11T03:11:02;-4.50;99.90
33095;DHT22;19459;53.044;8.910;2024-01-11T03:13:28;-4.50;99.90
33095;DHT22;19459;53.044;8.910;2024-01-11T03:15:54;-4.50;99.90
33095;DHT22;19459;53.044;8.910;2024-01-11T03:18:19;-4.50;99.90
33095;DHT22;19459;53.044;8.910;2024-01-11T03:20:45;-4.50;99.90
33095;DHT22;19459;53.044;8.910;2024-01-11T03:23:11;-4.50;99.90
33095;DHT22;19459;53.044;8.910;2024-01-11T03:25:37;-4.50;99.90
33095;DHT22;19459;53.044;8.910;2024-01-11T03:28:03;-4.50;99.90
33095;DHT22;19459;53.044;8.910;2024-01-11T03:30:29;-4.50;99.90
33095;DHT22;19459;53.044;8.910;2024-01-11T03:32:55;-4.50;99.90
33095;DHT22;19459;53.044;8.910;2024-01-11T03:35:21;-4.50;99.90
33095;DHT22;19459;53.044;8.910;2024-01-11T03:37:47;-4.50;99.90
33095;DHT22;19459;53.044;8.910;2024-01-11T03:40:12;-4.50;99.90
33095;DHT22;19459;53.044;8.910;2024-01-11T03:42:39;-4.50;99.90
33095;DHT22;19459;53.044;8.910;2024-01-11T03:45:07;-4.50;99.90
33095;DHT22;19459;53.044;8.910;2024-01-11T03:47:33;-4.50;99.90
33095;DHT22;19459;53.044;8.910;2024-01-11T03:49:58;-4.50;99.90
33095;DHT22;19459;53.044;8.910;2024-01-11T03:52:24;-4.50;99.90
33095;DHT22;19459;53.044;8.910;2024-01-11T03:54:50;-4.50;99.90
33095;DHT22;19459;53.044;8.910;2024-01-11T03:57:16;-4.50;99.90
33095;DHT22;19459;53.044;8.910;2024-01-11T03:59:42;-4.50;99.90
33095;DHT22;19459;53.044;8.910;2024-01-11T04:02:08;-4.40;99.90
33095;DHT22;19459;53.044;8.910;2024-01-11T04:04:34;-4.40;99.90
33095;DHT22;19459;53.044;8.910;2024-01-11T04:07:00;-4.40;99.90
33095;DHT22;19459;53.044;8.910;2024-01-11T04:09:26;-4.50;99.90
33095;DHT22;19459;53.044;8.910;2024-01-11T04:11:51;-4.50;99.90
33095;DHT22;19459;53.044;8.910;2024-01-11T04:14:17;-4.50;99.90
33095;DHT22;19459;53.044;8.910;2024-01-11T04:16:43;-4.50;99.90
33095;DHT22;19459;53.044;8.910;2024-01-11T04:19:10;-4.50;99.90
33095;DHT22;19459;53.044;8.910;2024-01-11T04:21:36;-4.50;99.90
33095;DHT22;19459;53.044;8.910;2024-01-11T04:24:04;-4.40;99.90
33095;DHT22;19459;53.044;8.910;2024-01-11T04:26:33;-4.40;99.90
33095;DHT22;19459;53.044;8.910;2024-01-11T04:28:59;-4.40;99.90
33095;DHT22;19459;53.044;8.910;2024-01-11T04:31:26;-4.40;99.90
33095;DHT22;19459;53.044;8.910;2024-01-11T04:33:52;-4.40;99.90
33095;DHT22;19459;53.044;8.910;2024-01-11T04:36:18;-4.40;99.90
33095;DHT22;19459;53.044;8.910;2024-01-11T04:38:44;-4.40;99.90
33095;DHT22;19459;53.044;8.910;2024-01-11T04:41:10;-4.50;99.90
33095;DHT22;19459;53.044;8.910;2024-01-11T04:43:43;-4.50;99.90
33095;DHT22;19459;53.044;8.910;2024-01-11T04:46:17;-4.60;99.90
33095;DHT22;19459;53.044;8.910;2024-01-11T04:48:46;-4.60;99.90
33095;DHT22;19459;53.044;8.910;2024-01-11T04:51:15;-4.60;99.90
33095;DHT22;19459;53.044;8.910;2024-01-11T04:53:43;-4.60;99.90
33095;DHT22;19459;53.044;8.910;2024-01-11T04:56:11;-4.50;99.90
33095;DHT22;19459;53.044;8.910;2024-01-11T04:58:43;-4.40;99.90
33095;DHT22;19459;53.044;8.910;2024-01-11T05:01:16;-4.40;99.90
33095;DHT22;19459;53.044;8.910;2024-01-11T05:03:44;-4.40;99.90
33095;DHT22;19459;53.044;8.910;2024-01-11T05:06:21;-4.30;99.90
33095;DHT22;19459;53.044;8.910;2024-01-11T05:08:49;-4.30;99.90
33095;DHT22;19459;53.044;8.910;2024-01-11T05:13:46;-4.30;99.90
33095;DHT22;19459;53.044;8.910;2024-01-11T05:16:39;-4.30;99.90
33095;DHT22;19459;53.044;8.910;2024-01-11T05:19:05;-4.30;99.90
33095;DHT22;19459;53.044;8.910;2024-01-11T05:21:31;-4.30;99.90
33095;DHT22;19459;53.044;8.910;2024-01-11T05:23:57;-4.30;99.90
33095;DHT22;19459;53.044;8.910;2024-01-11T05:26:23;-4.30;99.90
33095;DHT22;19459;53.044;8.910;2024-01-11T05:28:48;-4.40;99.90
33095;DHT22;19459;53.044;8.910;2024-01-11T05:31:15;-4.30;99.90
33095;DHT22;19459;53.044;8.910;2024-01-11T05:33:41;-4.30;99.90
33095;DHT22;19459;53.044;8.910;2024-01-11T05:36:07;-4.20;99.90
33095;DHT22;19459;53.044;8.910;2024-01-11T05:38:34;-4.20;99.90
33095;DHT22;19459;53.044;8.910;2024-01-11T05:41:00;-4.10;99.90
33095;DHT22;19459;53.044;8.910;2024-01-11T05:43:26;-4.10;99.90
33095;DHT22;19459;53.044;8.910;2024-01-11T05:45:52;-4.10;99.90
33095;DHT22;19459;53.044;8.910;2024-01-11T05:48:18;-4.20;99.90
33095;DHT22;19459;53.044;8.910;2024-01-11T05:50:44;-4.20;99.90
33095;DHT22;19459;53.044;8.910;2024-01-11T05:53:11;-4.30;99.90
33095;DHT22;19459;53.044;8.910;2024-01-11T05:55:37;-4.30;99.90
33095;DHT22;19459;53.044;8.910;2024-01-11T05:58:03;-4.30;99.90
33095;DHT22;19459;53.044;8.910;2024-01-11T06:00:29;-4.30;99.90
33095;DHT22;19459;53.044;8.910;2024-01-11T06:02:55;-4.30;99.90
33095;DHT22;19459;53.044;8.910;2024-01-11T06:05:21;-4.30;99.90
33095;DHT22;19459;53.044;8.910;2024-01-11T06:07:46;-4.30;99.90
33095;DHT22;19459;53.044;8.910;2024-01-11T06:10:14;-4.20;99.90
33095;DHT22;19459;53.044;8.910;2024-01-11T06:12:40;-4.20;99.90
33095;DHT22;19459;53.044;8.910;2024-01-11T06:15:07;-4.20;99.90
33095;DHT22;19459;53.044;8.910;2024-01-11T06:17:33;-4.10;99.90
33095;DHT22;19459;53.044;8.910;2024-01-11T06:19:59;-4.10;99.90
33095;DHT22;19459;53.044;8.910;2024-01-11T06:22:24;-4.10;99.90
33095;DHT22;19459;53.044;8.910;2024-01-11T06:24:50;-4.00;99.90
33095;DHT22;19459;53.044;8.910;2024-01-11T06:27:16;-4.00;99.90
33095;DHT22;19459;53.044;8.910;2024-01-11T06:29:41;-3.90;99.90
33095;DHT22;19459;53.044;8.910;2024-01-11T06:32:08;-3.80;99.90
33095;DHT22;19459;53.044;8.910;2024-01-11T06:34:35;-3.80;99.90
33095;DHT22;19459;53.044;8.910;2024-01-11T06:37:01;-3.80;99.90
33095;DHT22;19459;53.044;8.910;2024-01-11T06:39:28;-3.80;99.90
33095;DHT22;19459;53.044;8.910;2024-01-11T06:41:55;-3.70;99.90
33095;DHT22;19459;53.044;8.910;2024-01-11T06:44:21;-3.70;99.90
33095;DHT22;19459;53.044;8.910;2024-01-11T06:46:47;-3.60;99.90
33095;DHT22;19459;53.044;8.910;2024-01-11T06:49:12;-3.70;99.90
33095;DHT22;19459;53.044;8.910;2024-01-11T06:51:38;-3.80;99.90
33095;DHT22;19459;53.044;8.910;2024-01-11T06:54:04;-3.80;99.90
33095;DHT22;19459;53.044;8.910;2024-01-11T06:56:30;-3.80;99.90
33095;DHT22;19459;53.044;8.910;2024-01-11T06:58:56;-3.70;99.90
33095;DHT22;19459;53.044;8.910;2024-01-11T07:01:22;-3.70;99.90
33095;DHT22;19459;53.044;8.910;2024-01-11T07:03:48;-3.80;99.90
33095;DHT22;19459;53.044;8.910;2024-01-11T07:06:18;-3.80;99.90
33095;DHT22;19459;53.044;8.910;2024-01-11T07:08:44;-3.80;99.90
33095;DHT22;19459;53.044;8.910;2024-01-11T07:11:10;-3.80;99.90
33095;DHT22;19459;53.044;8.910;2024-01-11T07:13:36;-3.80;99.90
33095;DHT22;19459;53.044;8.910;2024-01-11T07:16:03;-3.70;99.90
33095;DHT22;19459;53.044;8.910;2024-01-11T07:18:29;-3.70;99.90
33095;DHT22;19459;53.044;8.910;2024-01-11T07:20:59;-3.70;99.90
33095;DHT22;19459;53.044;8.910;2024-01-11T07:23:25;-3.70;99.90
33095;DHT22;19459;53.044;8.910;2024-01-11T07:25:51;-3.50;99.90
33095;DHT22;19459;53.044;8.910;2024-01-11T07:28:17;-3.50;99.90
33095;DHT22;19459;53.044;8.910;2024-01-11T07:30:45;-3.50;99.90
33095;DHT22;19459;53.044;8.910;2024-01-11T07:33:11;-3.50;99.90
33095;DHT22;19459;53.044;8.910;2024-01-11T07:35:37;-3.50;99.90
33095;DHT22;19459;53.044;8.910;2024-01-11T07:38:03;-3.50;99.90
33095;DHT22;19459;53.044;8.910;2024-01-11T07:40:29;-3.40;99.90
33095;DHT22;19459;53.044;8.910;2024-01-11T07:42:55;-3.50;99.90
33095;DHT22;19459;53.044;8.910;2024-01-11T07:45:21;-3.40;99.90
33095;DHT22;19459;53.044;8.910;2024-01-11T07:47:47;-3.40;99.90
33095;DHT22;19459;53.044;8.910;2024-01-11T07:50:13;-3.40;99.90
33095;DHT22;19459;53.044;8.910;2024-01-11T07:52:39;-3.40;99.90
33095;DHT22;19459;53.044;8.910;2024-01-11T07:55:09;-3.30;99.90
33095;DHT22;19459;53.044;8.910;2024-01-11T07:57:39;-3.30;99.90
33095;DHT22;19459;53.044;8.910;2024-01-11T08:00:06;-3.20;99.90
33095;DHT22;19459;53.044;8.910;2024-01-11T08:02:33;-3.20;99.90
33095;DHT22;19459;53.044;8.910;2024-01-11T08:04:59;-3.10;99.90
33095;DHT22;19459;53.044;8.910;2024-01-11T08:07:28;-3.10;99.90
33095;DHT22;19459;53.044;8.910;2024-01-11T08:09:54;-3.10;99.90
33095;DHT22;19459;53.044;8.910;2024-01-11T08:12:20;-3.00;99.90
33095;DHT22;19459;53.044;8.910;2024-01-11T08:14:46;-3.00;99.90
33095;DHT22;19459;53.044;8.910;2024-01-11T08:17:13;-2.90;99.90
33095;DHT22;19459;53.044;8.910;2024-01-11T08:19:39;-2.90;99.90
33095;DHT22;19459;53.044;8.910;2024-01-11T08:22:06;-2.80;99.90
33095;DHT22;19459;53.044;8.910;2024-01-11T08:24:32;-2.90;99.90
33095;DHT22;19459;53.044;8.910;2024-01-11T08:27:00;-2.80;99.90
33095;DHT22;19459;53.044;8.910;2024-01-11T08:29:25;-2.80;99.90
33095;DHT22;19459;53.044;8.910;2024-01-11T08:31:51;-2.70;99.90
33095;DHT22;19459;53.044;8.910;2024-01-11T08:34:17;-2.70;99.90
33095;DHT22;19459;53.044;8.910;2024-01-11T08:36:43;-2.70;99.90
33095;DHT22;19459;53.044;8.910;2024-01-11T08:39:08;-2.60;99.90
33095;DHT22;19459;53.044;8.910;2024-01-11T08:41:37;-2.60;99.90
33095;DHT22;19459;53.044;8.910;2024-01-11T08:44:05;-2.50;99.90
33095;DHT22;19459;53.044;8.910;2024-01-11T08:46:31;-2.50;99.90
33095;DHT22;19459;53.044;8.910;2024-01-11T08:48:59;-2.50;99.90
33095;DHT22;19459;53.044;8.910;2024-01-11T08:51:27;-2.50;99.90
33095;DHT22;19459;53.044;8.910;2024-01-11T08:53:52;-2.50;99.90
33095;DHT22;19459;53.044;8.910;2024-01-11T08:56:18;-2.50;99.90
33095;DHT22;19459;53.044;8.910;2024-01-11T08:58:44;-2.40;99.90
33095;DHT22;19459;53.044;8.910;2024-01-11T09:01:11;-2.40;99.90
33095;DHT22;19459;53.044;8.910;2024-01-11T09:03:36;-2.40;99.90
33095;DHT22;19459;53.044;8.910;2024-01-11T09:06:03;-2.40;99.90
33095;DHT22;19459;53.044;8.910;2024-01-11T09:08:29;-2.40;99.90
33095;DHT22;19459;53.044;8.910;2024-01-11T09:10:59;-2.40;99.90
33095;DHT22;19459;53.044;8.910;2024-01-11T09:13:25;-2.30;99.90
33095;DHT22;19459;53.044;8.910;2024-01-11T09:15:52;-2.30;99.90
33095;DHT22;19459;53.044;8.910;2024-01-11T09:18:18;-2.30;99.90
33095;DHT22;19459;53.044;8.910;2024-01-11T09:20:44;-2.20;99.90
33095;DHT22;19459;53.044;8.910;2024-01-11T09:23:11;-2.20;99.90
33095;DHT22;19459;53.044;8.910;2024-01-11T09:25:37;-2.20;99.90
33095;DHT22;19459;53.044;8.910;2024-01-11T09:28:03;-2.20;99.90
33095;DHT22;19459;53.044;8.910;2024-01-11T09:30:29;-2.20;99.90
33095;DHT22;19459;53.044;8.910;2024-01-11T09:32:55;-2.10;99.90
33095;DHT22;19459;53.044;8.910;2024-01-11T09:35:22;-2.10;99.90
33095;DHT22;19459;53.044;8.910;2024-01-11T09:37:49;-2.00;99.90
33095;DHT22;19459;53.044;8.910;2024-01-11T09:40:15;-2.00;99.90
33095;DHT22;19459;53.044;8.910;2024-01-11T09:42:42;-2.00;99.90
33095;DHT22;19459;53.044;8.910;2024-01-11T09:45:18;-1.90;99.90
33095;DHT22;19459;53.044;8.910;2024-01-11T09:47:45;-1.90;99.90
33095;DHT22;19459;53.044;8.910;2024-01-11T09:50:11;-1.80;99.90
33095;DHT22;19459;53.044;8.910;2024-01-11T09:52:48;-1.80;99.90
33095;DHT22;19459;53.044;8.910;2024-01-11T09:55:18;-1.80;99.90
33095;DHT22;19459;53.044;8.910;2024-01-11T09:57:48;-1.80;99.90
33095;DHT22;19459;53.044;8.910;2024-01-11T10:00:19;-1.70;99.90
33095;DHT22;19459;53.044;8.910;2024-01-11T10:02:47;-1.60;99.90
33095;DHT22;19459;53.044;8.910;2024-01-11T10:05:13;-1.60;99.90
33095;DHT22;19459;53.044;8.910;2024-01-11T10:07:40;-1.60;99.90
33095;DHT22;19459;53.044;8.910;2024-01-11T10:10:06;-1.60;99.90
33095;DHT22;19459;53.044;8.910;2024-01-11T10:12:36;-1.50;99.90
33095;DHT22;19459;53.044;8.910;2024-01-11T10:15:07;-1.50;99.90
33095;DHT22;19459;53.044;8.910;2024-01-11T10:17:36;-1.30;99.90
33095;DHT22;19459;53.044;8.910;2024-01-11T10:20:04;-1.30;99.90
33095;DHT22;19459;53.044;8.910;2024-01-11T10:22:30;-1.20;99.90
33095;DHT22;19459;53.044;8.910;2024-01-11T10:25:15;-1.20;99.90
33095;DHT22;19459;53.044;8.910;2024-01-11T10:27:43;-1.20;99.90
33095;DHT22;19459;53.044;8.910;2024-01-11T10:30:11;-1.10;99.90
33095;DHT22;19459;53.044;8.910;2024-01-11T10:32:45;-1.10;99.90
33095;DHT22;19459;53.044;8.910;2024-01-11T10:35:12;-1.00;99.90
33095;DHT22;19459;53.044;8.910;2024-01-11T10:37:38;-1.00;99.90
33095;DHT22;19459;53.044;8.910;2024-01-11T10:40:06;-0.90;99.90
33095;DHT22;19459;53.044;8.910;2024-01-11T10:42:43;-0.90;99.90
33095;DHT22;19459;53.044;8.910;2024-01-11T10:45:20;-0.80;99.90
33095;DHT22;19459;53.044;8.910;2024-01-11T10:48:01;-0.90;99.90
33095;DHT22;19459;53.044;8.910;2024-01-11T10:50:36;-0.80;99.90
33095;DHT22;19459;53.044;8.910;2024-01-11T10:56:11;-0.70;99.90
33095;DHT22;19459;53.044;8.910;2024-01-11T10:58:43;-0.60;99.90
33095;DHT22;19459;53.044;8.910;2024-01-11T11:01:11;-0.50;99.90
33095;DHT22;19459;53.044;8.910;2024-01-11T11:03:38;-0.50;99.90
33095;DHT22;19459;53.044;8.910;2024-01-11T11:06:06;-0.50;99.90
33095;DHT22;19459;53.044;8.910;2024-01-11T11:08:33;-0.40;99.90
33095;DHT22;19459;53.044;8.910;2024-01-11T11:11:04;-0.30;99.90
33095;DHT22;19459;53.044;8.910;2024-01-11T11:13:34;-0.30;99.90
33095;DHT22;19459;53.044;8.910;2024-01-11T11:16:00;-0.30;99.90
33095;DHT22;19459;53.044;8.910;2024-01-11T11:18:27;-0.30;99.90
33095;DHT22;19459;53.044;8.910;2024-01-11T11:20:53;-0.20;99.90
33095;DHT22;19459;53.044;8.910;2024-01-11T11:23:19;-0.20;99.90
33095;DHT22;19459;53.044;8.910;2024-01-11T11:25:46;-0.20;99.90
33095;DHT22;19459;53.044;8.910;2024-01-11T11:28:17;-0.20;99.90
33095;DHT22;19459;53.044;8.910;2024-01-11T11:30:45;-0.20;99.90
33095;DHT22;19459;53.044;8.910;2024-01-11T11:33:21;-0.20;99.90
33095;DHT22;19459;53.044;8.910;2024-01-11T11:35:53;-0.20;99.90
33095;DHT22;19459;53.044;8.910;2024-01-11T11:38:25;-0.10;99.90
33095;DHT22;19459;53.044;8.910;2024-01-11T11:40:53;-0.10;99.90
33095;DHT22;19459;53.044;8.910;2024-01-11T11:43:21;0.00;99.90
33095;DHT22;19459;53.044;8.910;2024-01-11T11:45:48;0.00;99.90
33095;DHT22;19459;53.044;8.910;2024-01-11T11:51:09;0.00;99.90
33095;DHT22;19459;53.044;8.910;2024-01-11T11:53:36;0.10;99.90
33095;DHT22;19459;53.044;8.910;2024-01-11T11:56:03;0.10;99.90
33095;DHT22;19459;53.044;8.910;2024-01-11T11:58:31;0.10;99.90
33095;DHT22;19459;53.044;8.910;2024-01-11T12:00:59;0.20;99.90
33095;DHT22;19459;53.044;8.910;2024-01-11T12:03:30;0.20;99.90
33095;DHT22;19459;53.044;8.910;2024-01-11T12:05:59;0.20;99.90
33095;DHT22;19459;53.044;8.910;2024-01-11T12:08:26;0.30;99.90
33095;DHT22;19459;53.044;8.910;2024-01-11T12:10:53;0.30;99.90
33095;DHT22;19459;53.044;8.910;2024-01-11T12:13:19;0.30;99.90
33095;DHT22;19459;53.044;8.910;2024-01-11T12:15:46;0.40;99.90
33095;DHT22;19459;53.044;8.910;2024-01-11T12:18:12;0.40;99.90
33095;DHT22;19459;53.044;8.910;2024-01-11T12:20:37;0.40;99.90
33095;DHT22;19459;53.044;8.910;2024-01-11T12:23:03;0.40;99.90
33095;DHT22;19459;53.044;8.910;2024-01-11T12:25:30;0.40;99.90
33095;DHT22;19459;53.044;8.910;2024-01-11T12:27:57;0.50;99.90
33095;DHT22;19459;53.044;8.910;2024-01-11T12:30:24;0.40;99.90
33095;DHT22;19459;53.044;8.910;2024-01-11T12:32:51;0.40;99.90
33095;DHT22;19459;53.044;8.910;2024-01-11T12:35:17;0.50;99.90
33095;DHT22;19459;53.044;8.910;2024-01-11T12:37:59;0.50;99.90
33095;DHT22;19459;53.044;8.910;2024-01-11T12:40:27;0.50;99.90
33095;DHT22;19459;53.044;8.910;2024-01-11T12:42:53;0.50;99.90
33095;DHT22;19459;53.044;8.910;2024-01-11T12:45:20;0.50;99.90
33095;DHT22;19459;53.044;8.910;2024-01-11T12:47:46;0.50;99.90
33095;DHT22;19459;53.044;8.910;2024-01-11T12:50:12;0.50;99.90
33095;DHT22;19459;53.044;8.910;2024-01-11T12:52:38;0.60;99.90
33095;DHT22;19459;53.044;8.910;2024-01-11T12:55:06;0.60;99.90
33095;DHT22;19459;53.044;8.910;2024-01-11T12:57:33;0.60;99.90
33095;DHT22;19459;53.044;8.910;2024-01-11T13:00:18;0.60;99.90
33095;DHT22;19459;53.044;8.910;2024-01-11T13:02:44;0.70;99.90
33095;DHT22;19459;53.044;8.910;2024-01-11T13:05:11;0.70;99.90
33095;DHT22;19459;53.044;8.910;2024-01-11T13:07:37;0.70;99.90
33095;DHT22;19459;53.044;8.910;2024-01-11T13:10:04;0.70;99.90
33095;DHT22;19459;53.044;8.910;2024-01-11T13:12:30;0.70;99.90
33095;DHT22;19459;53.044;8.910;2024-01-11T13:14:56;0.70;99.90
33095;DHT22;19459;53.044;8.910;2024-01-11T13:17:22;0.70;99.90
33095;DHT22;19459;53.044;8.910;2024-01-11T13:19:48;0.70;99.90
33095;DHT22;19459;53.044;8.910;2024-01-11T13:22:14;0.70;99.90
33095;DHT22;19459;53.044;8.910;2024-01-11T13:24:40;0.80;99.90
33095;DHT22;19459;53.044;8.910;2024-01-11T13:27:05;0.80;99.90
33095;DHT22;19459;53.044;8.910;2024-01-11T13:29:31;0.70;99.90
33095;DHT22;19459;53.044;8.910;2024-01-11T13:31:57;0.80;99.90
33095;DHT22;19459;53.044;8.910;2024-01-11T13:34:23;0.80;99.90
33095;DHT22;19459;53.044;8.910;2024-01-11T13:36:49;0.80;99.90
33095;DHT22;19459;53.044;8.910;2024-01-11T13:39:14;0.90;99.90
33095;DHT22;19459;53.044;8.910;2024-01-11T13:41:43;0.90;99.90
33095;DHT22;19459;53.044;8.910;2024-01-11T13:44:09;0.90;99.90
33095;DHT22;19459;53.044;8.910;2024-01-11T13:46:37;0.90;99.90
33095;DHT22;19459;53.044;8.910;2024-01-11T13:49:03;0.90;99.90
33095;DHT22;19459;53.044;8.910;2024-01-11T13:51:28;0.90;99.90
33095;DHT22;19459;53.044;8.910;2024-01-11T13:53:57;1.00;99.90
33095;DHT22;19459;53.044;8.910;2024-01-11T13:56:25;0.90;99.90
33095;DHT22;19459;53.044;8.910;2024-01-11T13:58:50;1.00;99.90
33095;DHT22;19459;53.044;8.910;2024-01-11T14:01:16;1.00;99.90
33095;DHT22;19459;53.044;8.910;2024-01-11T14:03:44;1.00;99.90
33095;DHT22;19459;53.044;8.910;2024-01-11T14:06:10;1.00;99.90
33095;DHT22;19459;53.044;8.910;2024-01-11T14:08:36;1.00;99.90
33095;DHT22;19459;53.044;8.910;2024-01-11T14:11:02;1.00;99.90
33095;DHT22;19459;53.044;8.910;2024-01-11T14:13:29;1.00;99.90
33095;DHT22;19459;53.044;8.910;2024-01-11T14:15:57;1.00;99.90
33095;DHT22;19459;53.044;8.910;2024-01-11T14:18:23;1.00;99.90
33095;DHT22;19459;53.044;8.910;2024-01-11T14:20:49;1.10;99.90
33095;DHT22;19459;53.044;8.910;2024-01-11T14:23:15;1.10;99.90
33095;DHT22;19459;53.044;8.910;2024-01-11T14:25:41;1.10;99.90
33095;DHT22;19459;53.044;8.910;2024-01-11T14:28:07;1.10;99.90
33095;DHT22;19459;53.044;8.910;2024-01-11T14:30:33;1.10;99.90
33095;DHT22;19459;53.044;8.910;2024-01-11T14:33:00;1.10;99.90
33095;DHT22;19459;53.044;8.910;2024-01-11T14:35:25;1.20;99.90
33095;DHT22;19459;53.044;8.910;2024-01-11T14:37:51;1.20;99.90
33095;DHT22;19459;53.044;8.910;2024-01-11T14:40:18;1.20;99.90
33095;DHT22;19459;53.044;8.910;2024-01-11T14:42:44;1.20;99.90
33095;DHT22;19459;53.044;8.910;2024-01-11T14:45:10;1.20;99.90
33095;DHT22;19459;53.044;8.910;2024-01-11T14:47:36;1.20;99.90
33095;DHT22;19459;53.044;8.910;2024-01-11T14:50:03;1.20;99.90
33095;DHT22;19459;53.044;8.910;2024-01-11T14:52:29;1.20;99.90
33095;DHT22;19459;53.044;8.910;2024-01-11T14:54:56;1.20;99.90
33095;DHT22;19459;53.044;8.910;2024-01-11T14:57:22;1.20;99.90
33095;DHT22;19459;53.044;8.910;2024-01-11T14:59:48;1.20;99.90
33095;DHT22;19459;53.044;8.910;2024-01-11T15:02:14;1.20;99.90
33095;DHT22;19459;53.044;8.910;2024-01-11T15:04:40;1.20;99.90
33095;DHT22;19459;53.044;8.910;2024-01-11T15:07:06;1.20;99.90
33095;DHT22;19459;53.044;8.910;2024-01-11T15:09:33;1.20;99.90
33095;DHT22;19459;53.044;8.910;2024-01-11T15:12:00;1.20;99.90
33095;DHT22;19459;53.044;8.910;2024-01-11T15:14:25;1.20;99.90
33095;DHT22;19459;53.044;8.910;2024-01-11T15:16:52;1.20;99.90
33095;DHT22;19459;53.044;8.910;2024-01-11T15:19:18;1.20;99.90
33095;DHT22;19459;53.044;8.910;2024-01-11T15:21:44;1.20;99.90
33095;DHT22;19459;53.044;8.910;2024-01-11T15:24:10;1.20;99.90
33095;DHT22;19459;53.044;8.910;2024-01-11T15:26:36;1.20;99.90
33095;DHT22;19459;53.044;8.910;2024-01-11T15:29:01;1.20;99.90
33095;DHT22;19459;53.044;8.910;2024-01-11T15:31:27;1.30;99.90
33095;DHT22;19459;53.044;8.910;2024-01-11T15:33:53;1.30;99.90
33095;DHT22;19459;53.044;8.910;2024-01-11T15:36:21;1.30;99.90
33095;DHT22;19459;53.044;8.910;2024-01-11T15:38:47;1.30;99.90
33095;DHT22;19459;53.044;8.910;2024-01-11T15:41:15;1.30;99.90